Terminal Aerodrome Forecast
Issued by NWS

Home | Current Version | Previous Version | Text Only | Print | Product List | Glossary On
Versions: 1 2 3 4 5 6 7 8 9 10 11 12 13 14 15 16 17 18 19
000
FTUS41 KPHI 230841 AAA
TAFPNE
TAF AMD
KPNE 230841Z 2309/2406 VRB05KT 6SM BR VCSH SCT004 BKN015
     FM231200 04006KT P6SM BKN035
     FM231500 07006KT P6SM BKN050 PROB30 2400/2406 4SM +TSRA
      OVC025CB=

USA.gov is the U.S. government's official web portal to all federal, state and local government web resources and services.